sensor_id;sensor_type;location;lat;lon;timestamp;temperature;humidity
12289;DHT22;6207;49.308;7.336;2023-03-31T00:00:16;11.40;99.90
12289;DHT22;6207;49.308;7.336;2023-03-31T00:02:44;11.30;99.90
12289;DHT22;6207;49.308;7.336;2023-03-31T00:05:11;11.30;99.90
12289;DHT22;6207;49.308;7.336;2023-03-31T00:07:43;11.30;99.90
12289;DHT22;6207;49.308;7.336;2023-03-31T00:10:11;11.30;99.90
12289;DHT22;6207;49.308;7.336;2023-03-31T00:12:44;11.30;99.90
12289;DHT22;6207;49.308;7.336;2023-03-31T00:15:11;11.40;99.90
12289;DHT22;6207;49.308;7.336;2023-03-31T00:17:38;11.40;99.90
12289;DHT22;6207;49.308;7.336;2023-03-31T00:20:08;11.40;99.90
12289;DHT22;6207;49.308;7.336;2023-03-31T00:22:38;11.40;99.90
12289;DHT22;6207;49.308;7.336;2023-03-31T00:25:17;11.40;99.90
12289;DHT22;6207;49.308;7.336;2023-03-31T00:27:44;11.40;99.90
12289;DHT22;6207;49.308;7.336;2023-03-31T00:30:12;11.50;99.90
12289;DHT22;6207;49.308;7.336;2023-03-31T00:32:39;11.50;99.90
12289;DHT22;6207;49.308;7.336;2023-03-31T00:35:07;11.40;99.90
12289;DHT22;6207;49.308;7.336;2023-03-31T00:37:34;11.40;99.90
12289;DHT22;6207;49.308;7.336;2023-03-31T00:40:01;11.40;99.90
12289;DHT22;6207;49.308;7.336;2023-03-31T00:42:31;11.40;99.90
12289;DHT22;6207;49.308;7.336;2023-03-31T00:47:42;11.50;99.90
12289;DHT22;6207;49.308;7.336;2023-03-31T00:50:15;11.50;99.90
12289;DHT22;6207;49.308;7.336;2023-03-31T00:52:44;11.60;99.90
12289;DHT22;6207;49.308;7.336;2023-03-31T00:55:18;11.60;99.90
12289;DHT22;6207;49.308;7.336;2023-03-31T00:57:46;11.40;99.90
12289;DHT22;6207;49.308;7.336;2023-03-31T01:00:14;11.30;99.90
12289;DHT22;6207;49.308;7.336;2023-03-31T01:02:43;11.20;99.90
12289;DHT22;6207;49.308;7.336;2023-03-31T01:05:20;11.10;99.90
12289;DHT22;6207;49.308;7.336;2023-03-31T01:07:50;11.10;99.90
12289;DHT22;6207;49.308;7.336;2023-03-31T01:10:18;11.00;99.90
12289;DHT22;6207;49.308;7.336;2023-03-31T01:12:49;10.90;99.90
12289;DHT22;6207;49.308;7.336;2023-03-31T01:15:17;10.90;99.90
12289;DHT22;6207;49.308;7.336;2023-03-31T01:17:44;10.70;99.90
12289;DHT22;6207;49.308;7.336;2023-03-31T01:32:43;10.40;99.90
12289;DHT22;6207;49.308;7.336;2023-03-31T01:46:30;9.90;99.90
12289;DHT22;6207;49.308;7.336;2023-03-31T01:51:56;9.70;99.90
12289;DHT22;6207;49.308;7.336;2023-03-31T01:54:56;9.70;99.90
12289;DHT22;6207;49.308;7.336;2023-03-31T01:57:38;9.70;99.90
12289;DHT22;6207;49.308;7.336;2023-03-31T02:00:27;9.70;99.90
12289;DHT22;6207;49.308;7.336;2023-03-31T02:03:10;9.70;99.90
12289;DHT22;6207;49.308;7.336;2023-03-31T02:05:55;9.70;99.90
12289;DHT22;6207;49.308;7.336;2023-03-31T02:08:37;9.70;99.90
12289;DHT22;6207;49.308;7.336;2023-03-31T02:11:05;9.70;99.90
12289;DHT22;6207;49.308;7.336;2023-03-31T02:13:33;9.60;99.90
12289;DHT22;6207;49.308;7.336;2023-03-31T02:16:05;9.60;99.90
12289;DHT22;6207;49.308;7.336;2023-03-31T02:18:34;9.60;99.90
12289;DHT22;6207;49.308;7.336;2023-03-31T02:21:05;9.60;99.90
12289;DHT22;6207;49.308;7.336;2023-03-31T02:23:36;9.70;99.90
12289;DHT22;6207;49.308;7.336;2023-03-31T02:26:05;9.60;99.90
12289;DHT22;6207;49.308;7.336;2023-03-31T02:28:33;9.60;99.90
12289;DHT22;6207;49.308;7.336;2023-03-31T02:33:38;9.50;99.90
12289;DHT22;6207;49.308;7.336;2023-03-31T02:36:05;9.60;99.90
12289;DHT22;6207;49.308;7.336;2023-03-31T02:38:38;9.60;99.90
12289;DHT22;6207;49.308;7.336;2023-03-31T02:41:09;9.60;99.90
12289;DHT22;6207;49.308;7.336;2023-03-31T02:43:36;9.50;99.90
12289;DHT22;6207;49.308;7.336;2023-03-31T02:46:03;9.60;99.90
12289;DHT22;6207;49.308;7.336;2023-03-31T02:48:37;9.50;99.90
12289;DHT22;6207;49.308;7.336;2023-03-31T03:02:32;9.50;99.90
12289;DHT22;6207;49.308;7.336;2023-03-31T03:08:16;9.50;99.90
12289;DHT22;6207;49.308;7.336;2023-03-31T03:16:17;9.50;99.90
12289;DHT22;6207;49.308;7.336;2023-03-31T03:18:55;9.50;99.90
12289;DHT22;6207;49.308;7.336;2023-03-31T03:21:22;9.40;99.90
12289;DHT22;6207;49.308;7.336;2023-03-31T03:23:49;9.40;99.90
12289;DHT22;6207;49.308;7.336;2023-03-31T03:26:17;9.40;99.90
12289;DHT22;6207;49.308;7.336;2023-03-31T03:28:47;9.40;99.90
12289;DHT22;6207;49.308;7.336;2023-03-31T03:31:14;9.40;99.90
12289;DHT22;6207;49.308;7.336;2023-03-31T03:33:42;9.50;99.90
12289;DHT22;6207;49.308;7.336;2023-03-31T03:36:08;9.50;99.90
12289;DHT22;6207;49.308;7.336;2023-03-31T03:38:35;9.40;99.90
12289;DHT22;6207;49.308;7.336;2023-03-31T03:41:02;9.50;99.90
12289;DHT22;6207;49.308;7.336;2023-03-31T03:43:29;9.50;99.90
12289;DHT22;6207;49.308;7.336;2023-03-31T03:45:56;9.50;99.90
12289;DHT22;6207;49.308;7.336;2023-03-31T03:48:23;9.50;99.90
12289;DHT22;6207;49.308;7.336;2023-03-31T03:50:50;9.50;99.90
12289;DHT22;6207;49.308;7.336;2023-03-31T03:53:18;9.40;99.90
12289;DHT22;6207;49.308;7.336;2023-03-31T03:55:45;9.40;99.90
12289;DHT22;6207;49.308;7.336;2023-03-31T03:58:16;9.30;99.90
12289;DHT22;6207;49.308;7.336;2023-03-31T04:00:42;9.30;99.90
12289;DHT22;6207;49.308;7.336;2023-03-31T04:03:11;9.20;99.90
12289;DHT22;6207;49.308;7.336;2023-03-31T04:05:38;9.20;99.90
12289;DHT22;6207;49.308;7.336;2023-03-31T04:08:05;9.10;99.90
12289;DHT22;6207;49.308;7.336;2023-03-31T04:10:34;9.10;99.90
12289;DHT22;6207;49.308;7.336;2023-03-31T04:13:01;9.10;99.90
12289;DHT22;6207;49.308;7.336;2023-03-31T04:15:28;9.10;99.90
12289;DHT22;6207;49.308;7.336;2023-03-31T04:17:55;9.00;99.90
12289;DHT22;6207;49.308;7.336;2023-03-31T04:20:23;9.00;99.90
12289;DHT22;6207;49.308;7.336;2023-03-31T04:22:53;9.10;99.90
12289;DHT22;6207;49.308;7.336;2023-03-31T04:25:20;9.10;99.90
12289;DHT22;6207;49.308;7.336;2023-03-31T04:27:49;9.00;99.90
12289;DHT22;6207;49.308;7.336;2023-03-31T04:30:21;9.00;99.90
12289;DHT22;6207;49.308;7.336;2023-03-31T04:32:50;9.00;99.90
12289;DHT22;6207;49.308;7.336;2023-03-31T04:35:19;9.00;99.90
12289;DHT22;6207;49.308;7.336;2023-03-31T04:37:50;9.00;99.90
12289;DHT22;6207;49.308;7.336;2023-03-31T04:40:17;9.10;99.90
12289;DHT22;6207;49.308;7.336;2023-03-31T04:42:44;9.00;99.90
12289;DHT22;6207;49.308;7.336;2023-03-31T04:45:11;9.00;99.90
12289;DHT22;6207;49.308;7.336;2023-03-31T04:47:38;9.00;99.90
12289;DHT22;6207;49.308;7.336;2023-03-31T04:50:05;9.00;99.90
12289;DHT22;6207;49.308;7.336;2023-03-31T04:52:32;9.00;99.90
12289;DHT22;6207;49.308;7.336;2023-03-31T04:54:59;9.00;99.90
12289;DHT22;6207;49.308;7.336;2023-03-31T04:57:26;9.00;99.90
12289;DHT22;6207;49.308;7.336;2023-03-31T04:59:52;9.00;99.90
12289;DHT22;6207;49.308;7.336;2023-03-31T05:02:19;9.10;99.90
12289;DHT22;6207;49.308;7.336;2023-03-31T05:04:51;9.10;99.90
12289;DHT22;6207;49.308;7.336;2023-03-31T05:07:18;9.00;99.90
12289;DHT22;6207;49.308;7.336;2023-03-31T05:09:44;9.10;99.90
12289;DHT22;6207;49.308;7.336;2023-03-31T05:12:12;9.10;99.90
12289;DHT22;6207;49.308;7.336;2023-03-31T05:14:39;8.80;99.90
12289;DHT22;6207;49.308;7.336;2023-03-31T05:17:05;8.90;99.90
12289;DHT22;6207;49.308;7.336;2023-03-31T05:19:32;8.90;99.90
12289;DHT22;6207;49.308;7.336;2023-03-31T05:21:59;8.90;99.90
12289;DHT22;6207;49.308;7.336;2023-03-31T05:24:25;8.90;99.90
12289;DHT22;6207;49.308;7.336;2023-03-31T05:26:55;9.00;99.90
12289;DHT22;6207;49.308;7.336;2023-03-31T05:29:23;8.90;99.90
12289;DHT22;6207;49.308;7.336;2023-03-31T05:31:50;9.10;99.90
12289;DHT22;6207;49.308;7.336;2023-03-31T05:34:18;9.10;99.90
12289;DHT22;6207;49.308;7.336;2023-03-31T05:36:45;9.10;99.90
12289;DHT22;6207;49.308;7.336;2023-03-31T05:39:13;9.10;99.90
12289;DHT22;6207;49.308;7.336;2023-03-31T05:41:40;9.20;99.90
12289;DHT22;6207;49.308;7.336;2023-03-31T05:44:07;9.20;99.90
12289;DHT22;6207;49.308;7.336;2023-03-31T05:46:33;9.30;99.90
12289;DHT22;6207;49.308;7.336;2023-03-31T05:49:00;9.50;99.90
12289;DHT22;6207;49.308;7.336;2023-03-31T05:51:28;9.50;99.90
12289;DHT22;6207;49.308;7.336;2023-03-31T05:53:54;9.60;99.90
12289;DHT22;6207;49.308;7.336;2023-03-31T05:56:21;9.60;99.90
12289;DHT22;6207;49.308;7.336;2023-03-31T05:58:48;9.70;99.90
12289;DHT22;6207;49.308;7.336;2023-03-31T06:01:16;9.70;99.90
12289;DHT22;6207;49.308;7.336;2023-03-31T06:03:48;9.70;99.90
12289;DHT22;6207;49.308;7.336;2023-03-31T06:06:15;9.70;99.90
12289;DHT22;6207;49.308;7.336;2023-03-31T06:08:44;9.70;99.90
12289;DHT22;6207;49.308;7.336;2023-03-31T06:11:16;9.70;99.90
12289;DHT22;6207;49.308;7.336;2023-03-31T06:13:45;9.90;99.90
12289;DHT22;6207;49.308;7.336;2023-03-31T06:16:13;10.00;99.90
12289;DHT22;6207;49.308;7.336;2023-03-31T06:18:40;10.10;99.90
12289;DHT22;6207;49.308;7.336;2023-03-31T06:21:09;10.10;99.90
12289;DHT22;6207;49.308;7.336;2023-03-31T06:23:37;10.20;99.90
12289;DHT22;6207;49.308;7.336;2023-03-31T06:26:06;10.20;99.90
12289;DHT22;6207;49.308;7.336;2023-03-31T06:28:34;10.30;99.90
12289;DHT22;6207;49.308;7.336;2023-03-31T06:31:06;10.40;99.90
12289;DHT22;6207;49.308;7.336;2023-03-31T06:33:34;10.50;99.90
12289;DHT22;6207;49.308;7.336;2023-03-31T06:36:01;10.50;99.90
12289;DHT22;6207;49.308;7.336;2023-03-31T06:38:30;10.40;99.90
12289;DHT22;6207;49.308;7.336;2023-03-31T06:40:57;10.40;99.90
12289;DHT22;6207;49.308;7.336;2023-03-31T06:43:23;10.40;99.90
12289;DHT22;6207;49.308;7.336;2023-03-31T06:45:52;10.40;99.90
12289;DHT22;6207;49.308;7.336;2023-03-31T06:48:20;10.40;99.90
12289;DHT22;6207;49.308;7.336;2023-03-31T06:50:47;10.40;99.90
12289;DHT22;6207;49.308;7.336;2023-03-31T06:53:14;10.60;99.90
12289;DHT22;6207;49.308;7.336;2023-03-31T06:55:41;10.70;99.90
12289;DHT22;6207;49.308;7.336;2023-03-31T06:58:08;10.70;99.90
12289;DHT22;6207;49.308;7.336;2023-03-31T07:00:34;10.70;99.90
12289;DHT22;6207;49.308;7.336;2023-03-31T07:03:02;10.60;99.90
12289;DHT22;6207;49.308;7.336;2023-03-31T07:05:30;10.60;99.90
12289;DHT22;6207;49.308;7.336;2023-03-31T07:07:58;10.40;99.90
12289;DHT22;6207;49.308;7.336;2023-03-31T07:10:27;10.30;99.90
12289;DHT22;6207;49.308;7.336;2023-03-31T07:12:54;9.90;99.90
12289;DHT22;6207;49.308;7.336;2023-03-31T07:15:20;9.90;99.90
12289;DHT22;6207;49.308;7.336;2023-03-31T07:17:47;10.00;99.90
12289;DHT22;6207;49.308;7.336;2023-03-31T07:20:17;10.10;99.90
12289;DHT22;6207;49.308;7.336;2023-03-31T07:22:45;10.30;99.90
12289;DHT22;6207;49.308;7.336;2023-03-31T07:25:14;10.50;99.90
12289;DHT22;6207;49.308;7.336;2023-03-31T07:27:42;10.60;99.90
12289;DHT22;6207;49.308;7.336;2023-03-31T07:30:18;10.40;99.90
12289;DHT22;6207;49.308;7.336;2023-03-31T07:32:46;10.40;99.90
12289;DHT22;6207;49.308;7.336;2023-03-31T07:35:14;10.40;99.90
12289;DHT22;6207;49.308;7.336;2023-03-31T07:37:43;10.40;99.90
12289;DHT22;6207;49.308;7.336;2023-03-31T07:40:19;10.60;99.90
12289;DHT22;6207;49.308;7.336;2023-03-31T07:42:46;10.80;99.90
12289;DHT22;6207;49.308;7.336;2023-03-31T07:45:15;10.40;99.90
12289;DHT22;6207;49.308;7.336;2023-03-31T07:47:42;10.30;99.90
12289;DHT22;6207;49.308;7.336;2023-03-31T07:50:10;10.20;99.90
12289;DHT22;6207;49.308;7.336;2023-03-31T07:52:37;10.30;99.90
12289;DHT22;6207;49.308;7.336;2023-03-31T07:55:05;10.30;99.90
12289;DHT22;6207;49.308;7.336;2023-03-31T07:57:33;10.30;99.90
12289;DHT22;6207;49.308;7.336;2023-03-31T08:00:01;10.30;99.90
12289;DHT22;6207;49.308;7.336;2023-03-31T08:02:32;10.30;99.90
12289;DHT22;6207;49.308;7.336;2023-03-31T08:04:59;10.30;99.90
12289;DHT22;6207;49.308;7.336;2023-03-31T08:07:26;10.10;99.90
12289;DHT22;6207;49.308;7.336;2023-03-31T08:09:56;10.20;99.90
12289;DHT22;6207;49.308;7.336;2023-03-31T08:12:24;10.10;99.90
12289;DHT22;6207;49.308;7.336;2023-03-31T08:14:50;9.90;99.90
12289;DHT22;6207;49.308;7.336;2023-03-31T08:17:17;9.90;99.90
12289;DHT22;6207;49.308;7.336;2023-03-31T08:19:44;9.90;99.90
12289;DHT22;6207;49.308;7.336;2023-03-31T08:22:11;10.10;99.90
12289;DHT22;6207;49.308;7.336;2023-03-31T08:24:37;10.30;99.90
12289;DHT22;6207;49.308;7.336;2023-03-31T08:27:04;9.30;99.90
12289;DHT22;6207;49.308;7.336;2023-03-31T08:29:36;8.20;99.90
12289;DHT22;6207;49.308;7.336;2023-03-31T08:32:03;8.50;99.90
12289;DHT22;6207;49.308;7.336;2023-03-31T08:34:30;8.90;99.90
12289;DHT22;6207;49.308;7.336;2023-03-31T08:36:57;9.00;99.90
12289;DHT22;6207;49.308;7.336;2023-03-31T08:39:24;9.10;99.90
12289;DHT22;6207;49.308;7.336;2023-03-31T08:41:57;9.20;99.90
12289;DHT22;6207;49.308;7.336;2023-03-31T08:44:30;9.10;99.90
12289;DHT22;6207;49.308;7.336;2023-03-31T08:46:58;9.20;99.90
12289;DHT22;6207;49.308;7.336;2023-03-31T08:49:38;9.10;99.90
12289;DHT22;6207;49.308;7.336;2023-03-31T08:52:11;9.20;99.90
12289;DHT22;6207;49.308;7.336;2023-03-31T08:54:42;9.20;99.90
12289;DHT22;6207;49.308;7.336;2023-03-31T08:57:17;9.30;99.90
12289;DHT22;6207;49.308;7.336;2023-03-31T08:59:46;9.30;99.90
12289;DHT22;6207;49.308;7.336;2023-03-31T09:02:24;9.40;99.90
12289;DHT22;6207;49.308;7.336;2023-03-31T09:10:52;9.80;99.90
12289;DHT22;6207;49.308;7.336;2023-03-31T09:18:49;12.80;99.90
12289;DHT22;6207;49.308;7.336;2023-03-31T09:21:30;11.60;99.90
12289;DHT22;6207;49.308;7.336;2023-03-31T09:24:10;11.30;99.90
12289;DHT22;6207;49.308;7.336;2023-03-31T09:26:46;11.60;99.90
12289;DHT22;6207;49.308;7.336;2023-03-31T09:29:16;11.40;99.90
12289;DHT22;6207;49.308;7.336;2023-03-31T09:31:46;11.30;99.90
12289;DHT22;6207;49.308;7.336;2023-03-31T09:34:15;11.20;99.90
12289;DHT22;6207;49.308;7.336;2023-03-31T09:36:43;11.10;99.90
12289;DHT22;6207;49.308;7.336;2023-03-31T09:39:12;11.30;99.90
12289;DHT22;6207;49.308;7.336;2023-03-31T09:41:43;11.80;99.90
12289;DHT22;6207;49.308;7.336;2023-03-31T09:46:53;12.80;99.90
12289;DHT22;6207;49.308;7.336;2023-03-31T09:49:22;12.00;99.90
12289;DHT22;6207;49.308;7.336;2023-03-31T09:52:05;12.20;99.90
12289;DHT22;6207;49.308;7.336;2023-03-31T09:54:44;12.70;99.90
12289;DHT22;6207;49.308;7.336;2023-03-31T09:57:26;12.30;99.90
12289;DHT22;6207;49.308;7.336;2023-03-31T10:00:18;11.90;99.90
12289;DHT22;6207;49.308;7.336;2023-03-31T10:02:53;11.80;99.90
12289;DHT22;6207;49.308;7.336;2023-03-31T10:05:33;11.50;99.90
12289;DHT22;6207;49.308;7.336;2023-03-31T10:10:48;10.30;99.90
12289;DHT22;6207;49.308;7.336;2023-03-31T10:13:24;10.30;99.90
12289;DHT22;6207;49.308;7.336;2023-03-31T10:15:53;10.00;99.90
12289;DHT22;6207;49.308;7.336;2023-03-31T10:18:31;10.00;99.90
12289;DHT22;6207;49.308;7.336;2023-03-31T10:21:00;10.20;99.90
12289;DHT22;6207;49.308;7.336;2023-03-31T10:23:30;11.00;99.90
12289;DHT22;6207;49.308;7.336;2023-03-31T10:25:58;11.30;99.90
12289;DHT22;6207;49.308;7.336;2023-03-31T10:28:26;11.10;99.90
12289;DHT22;6207;49.308;7.336;2023-03-31T10:30:58;11.20;99.90
12289;DHT22;6207;49.308;7.336;2023-03-31T10:33:30;11.70;99.90
12289;DHT22;6207;49.308;7.336;2023-03-31T10:36:06;12.10;99.90
12289;DHT22;6207;49.308;7.336;2023-03-31T10:38:38;12.60;99.90
12289;DHT22;6207;49.308;7.336;2023-03-31T10:41:08;12.30;99.90
12289;DHT22;6207;49.308;7.336;2023-03-31T10:43:47;12.10;99.90
12289;DHT22;6207;49.308;7.336;2023-03-31T10:46:14;11.80;99.90
12289;DHT22;6207;49.308;7.336;2023-03-31T10:48:41;12.00;99.90
12289;DHT22;6207;49.308;7.336;2023-03-31T10:51:20;11.80;99.90
12289;DHT22;6207;49.308;7.336;2023-03-31T10:53:56;11.90;99.90
12289;DHT22;6207;49.308;7.336;2023-03-31T11:05:22;10.80;99.90
12289;DHT22;6207;49.308;7.336;2023-03-31T11:13:47;10.70;99.90
12289;DHT22;6207;49.308;7.336;2023-03-31T11:16:38;9.40;99.90
12289;DHT22;6207;49.308;7.336;2023-03-31T11:19:40;9.80;99.90
12289;DHT22;6207;49.308;7.336;2023-03-31T11:22:27;10.00;99.90
12289;DHT22;6207;49.308;7.336;2023-03-31T11:25:26;10.20;99.90
12289;DHT22;6207;49.308;7.336;2023-03-31T11:35:00;11.50;99.90
12289;DHT22;6207;49.308;7.336;2023-03-31T11:39:58;11.90;99.90
12289;DHT22;6207;49.308;7.336;2023-03-31T11:42:38;12.00;99.90
12289;DHT22;6207;49.308;7.336;2023-03-31T11:45:20;12.10;99.90
12289;DHT22;6207;49.308;7.336;2023-03-31T11:47:51;12.10;99.90
12289;DHT22;6207;49.308;7.336;2023-03-31T11:50:25;12.00;99.90
12289;DHT22;6207;49.308;7.336;2023-03-31T11:53:05;12.00;99.90
12289;DHT22;6207;49.308;7.336;2023-03-31T11:55:34;12.20;99.90
12289;DHT22;6207;49.308;7.336;2023-03-31T11:58:03;12.50;99.90
12289;DHT22;6207;49.308;7.336;2023-03-31T12:00:40;12.40;99.90
12289;DHT22;6207;49.308;7.336;2023-03-31T12:05:42;12.50;99.90
12289;DHT22;6207;49.308;7.336;2023-03-31T12:08:46;12.40;99.90
12289;DHT22;6207;49.308;7.336;2023-03-31T12:11:37;12.40;99.90
12289;DHT22;6207;49.308;7.336;2023-03-31T12:14:19;12.60;99.90
12289;DHT22;6207;49.308;7.336;2023-03-31T12:16:50;12.90;99.90
12289;DHT22;6207;49.308;7.336;2023-03-31T12:19:24;12.90;99.90
12289;DHT22;6207;49.308;7.336;2023-03-31T12:24:53;12.50;99.90
12289;DHT22;6207;49.308;7.336;2023-03-31T12:30:05;13.00;99.90
12289;DHT22;6207;49.308;7.336;2023-03-31T12:32:36;13.40;99.90
12289;DHT22;6207;49.308;7.336;2023-03-31T12:38:28;12.90;99.90
12289;DHT22;6207;49.308;7.336;2023-03-31T12:47:02;12.20;99.90
12289;DHT22;6207;49.308;7.336;2023-03-31T12:52:46;11.90;99.90
12289;DHT22;6207;49.308;7.336;2023-03-31T13:01:09;10.30;99.90
12289;DHT22;6207;49.308;7.336;2023-03-31T13:04:24;10.10;99.90
12289;DHT22;6207;49.308;7.336;2023-03-31T13:09:05;9.50;99.90
12289;DHT22;6207;49.308;7.336;2023-03-31T13:11:37;9.20;99.90
12289;DHT22;6207;49.308;7.336;2023-03-31T13:14:22;8.50;99.90
12289;DHT22;6207;49.308;7.336;2023-03-31T13:16:51;8.50;99.90
12289;DHT22;6207;49.308;7.336;2023-03-31T13:19:34;8.80;99.90
12289;DHT22;6207;49.308;7.336;2023-03-31T13:22:04;9.60;99.90
12289;DHT22;6207;49.308;7.336;2023-03-31T13:24:31;9.80;99.90
12289;DHT22;6207;49.308;7.336;2023-03-31T13:27:33;10.10;99.90
12289;DHT22;6207;49.308;7.336;2023-03-31T13:30:00;10.10;99.90
12289;DHT22;6207;49.308;7.336;2023-03-31T13:32:27;10.10;99.90
12289;DHT22;6207;49.308;7.336;2023-03-31T13:46:13;11.00;99.90
12289;DHT22;6207;49.308;7.336;2023-03-31T13:59:47;11.60;99.90
12289;DHT22;6207;49.308;7.336;2023-03-31T14:02:44;11.70;99.90
12289;DHT22;6207;49.308;7.336;2023-03-31T14:05:32;11.50;99.90
12289;DHT22;6207;49.308;7.336;2023-03-31T14:10:36;11.30;99.90
12289;DHT22;6207;49.308;7.336;2023-03-31T14:13:17;11.20;99.90
12289;DHT22;6207;49.308;7.336;2023-03-31T14:15:52;11.10;99.90
12289;DHT22;6207;49.308;7.336;2023-03-31T14:18:29;10.90;99.90
12289;DHT22;6207;49.308;7.336;2023-03-31T14:26:48;10.10;99.90
12289;DHT22;6207;49.308;7.336;2023-03-31T14:29:31;10.60;99.90
12289;DHT22;6207;49.308;7.336;2023-03-31T14:32:16;10.60;99.90
12289;DHT22;6207;49.308;7.336;2023-03-31T14:37:30;10.80;99.90
12289;DHT22;6207;49.308;7.336;2023-03-31T14:39:57;10.80;99.90
12289;DHT22;6207;49.308;7.336;2023-03-31T14:42:36;10.90;99.90
12289;DHT22;6207;49.308;7.336;2023-03-31T14:45:06;10.90;99.90
12289;DHT22;6207;49.308;7.336;2023-03-31T14:47:35;11.10;99.90
12289;DHT22;6207;49.308;7.336;2023-03-31T14:50:12;11.00;99.90
12289;DHT22;6207;49.308;7.336;2023-03-31T14:52:46;11.10;99.90
12289;DHT22;6207;49.308;7.336;2023-03-31T14:55:14;11.00;99.90
12289;DHT22;6207;49.308;7.336;2023-03-31T14:57:44;10.90;99.90
12289;DHT22;6207;49.308;7.336;2023-03-31T15:00:24;11.00;99.90
12289;DHT22;6207;49.308;7.336;2023-03-31T15:02:53;11.00;99.90
12289;DHT22;6207;49.308;7.336;2023-03-31T15:05:33;11.00;99.90
12289;DHT22;6207;49.308;7.336;2023-03-31T15:08:19;10.90;99.90
12289;DHT22;6207;49.308;7.336;2023-03-31T15:10:51;10.80;99.90
12289;DHT22;6207;49.308;7.336;2023-03-31T15:13:37;10.70;99.90
12289;DHT22;6207;49.308;7.336;2023-03-31T15:16:37;10.80;99.90
12289;DHT22;6207;49.308;7.336;2023-03-31T15:19:15;10.70;99.90
12289;DHT22;6207;49.308;7.336;2023-03-31T15:21:43;10.70;99.90
12289;DHT22;6207;49.308;7.336;2023-03-31T15:24:13;10.60;99.90
12289;DHT22;6207;49.308;7.336;2023-03-31T15:26:46;10.60;99.90
12289;DHT22;6207;49.308;7.336;2023-03-31T15:29:34;10.60;99.90
12289;DHT22;6207;49.308;7.336;2023-03-31T15:32:03;10.60;99.90
12289;DHT22;6207;49.308;7.336;2023-03-31T15:34:33;10.60;99.90
12289;DHT22;6207;49.308;7.336;2023-03-31T15:37:05;10.70;99.90
12289;DHT22;6207;49.308;7.336;2023-03-31T15:39:34;10.80;99.90
12289;DHT22;6207;49.308;7.336;2023-03-31T15:42:04;10.90;99.90
12289;DHT22;6207;49.308;7.336;2023-03-31T15:44:43;10.90;99.90
12289;DHT22;6207;49.308;7.336;2023-03-31T15:47:27;11.10;99.90
12289;DHT22;6207;49.308;7.336;2023-03-31T15:50:07;11.10;99.90
12289;DHT22;6207;49.308;7.336;2023-03-31T15:52:45;11.20;99.90
12289;DHT22;6207;49.308;7.336;2023-03-31T15:55:39;11.30;99.90
12289;DHT22;6207;49.308;7.336;2023-03-31T15:58:10;11.20;99.90
12289;DHT22;6207;49.308;7.336;2023-03-31T16:00:46;11.20;99.90
12289;DHT22;6207;49.308;7.336;2023-03-31T16:03:15;11.20;99.90
12289;DHT22;6207;49.308;7.336;2023-03-31T16:05:54;11.20;99.90
12289;DHT22;6207;49.308;7.336;2023-03-31T16:08:34;11.10;99.90
12289;DHT22;6207;49.308;7.336;2023-03-31T16:11:10;11.10;99.90
12289;DHT22;6207;49.308;7.336;2023-03-31T16:13:42;11.10;99.90
12289;DHT22;6207;49.308;7.336;2023-03-31T16:16:16;11.10;99.90
12289;DHT22;6207;49.308;7.336;2023-03-31T16:19:08;11.00;99.90
12289;DHT22;6207;49.308;7.336;2023-03-31T16:21:45;11.10;99.90
12289;DHT22;6207;49.308;7.336;2023-03-31T16:24:13;11.00;99.90
12289;DHT22;6207;49.308;7.336;2023-03-31T16:26:41;10.80;99.90
12289;DHT22;6207;49.308;7.336;2023-03-31T16:29:08;10.80;99.90
12289;DHT22;6207;49.308;7.336;2023-03-31T16:31:37;10.70;99.90
12289;DHT22;6207;49.308;7.336;2023-03-31T16:34:07;10.70;99.90
12289;DHT22;6207;49.308;7.336;2023-03-31T16:36:34;10.60;99.90
12289;DHT22;6207;49.308;7.336;2023-03-31T16:39:02;10.40;99.90
12289;DHT22;6207;49.308;7.336;2023-03-31T16:41:31;10.40;99.90
12289;DHT22;6207;49.308;7.336;2023-03-31T16:43:58;10.30;99.90
12289;DHT22;6207;49.308;7.336;2023-03-31T16:46:25;10.20;99.90
12289;DHT22;6207;49.308;7.336;2023-03-31T16:48:52;10.20;99.90
12289;DHT22;6207;49.308;7.336;2023-03-31T16:51:19;10.20;99.90
12289;DHT22;6207;49.308;7.336;2023-03-31T16:53:46;10.10;99.90
12289;DHT22;6207;49.308;7.336;2023-03-31T16:56:13;10.10;99.90
12289;DHT22;6207;49.308;7.336;2023-03-31T16:58:41;10.10;99.90
12289;DHT22;6207;49.308;7.336;2023-03-31T17:01:09;10.10;99.90
12289;DHT22;6207;49.308;7.336;2023-03-31T17:03:36;10.10;99.90
12289;DHT22;6207;49.308;7.336;2023-03-31T17:06:08;10.10;99.90
12289;DHT22;6207;49.308;7.336;2023-03-31T17:08:35;10.10;99.90
12289;DHT22;6207;49.308;7.336;2023-03-31T17:11:08;10.20;99.90
12289;DHT22;6207;49.308;7.336;2023-03-31T17:13:38;10.20;99.90
12289;DHT22;6207;49.308;7.336;2023-03-31T17:16:05;10.20;99.90
12289;DHT22;6207;49.308;7.336;2023-03-31T17:18:49;10.20;99.90
12289;DHT22;6207;49.308;7.336;2023-03-31T17:21:16;10.30;99.90
12289;DHT22;6207;49.308;7.336;2023-03-31T17:23:46;10.20;99.90
12289;DHT22;6207;49.308;7.336;2023-03-31T17:26:13;10.30;99.90
12289;DHT22;6207;49.308;7.336;2023-03-31T17:28:41;10.20;99.90
12289;DHT22;6207;49.308;7.336;2023-03-31T17:31:12;10.40;99.90
12289;DHT22;6207;49.308;7.336;2023-03-31T17:33:40;10.40;99.90
12289;DHT22;6207;49.308;7.336;2023-03-31T17:36:07;10.30;99.90
12289;DHT22;6207;49.308;7.336;2023-03-31T17:38:34;10.40;99.90
12289;DHT22;6207;49.308;7.336;2023-03-31T17:41:02;10.30;99.90
12289;DHT22;6207;49.308;7.336;2023-03-31T17:43:29;10.30;99.90
12289;DHT22;6207;49.308;7.336;2023-03-31T17:46:00;10.30;99.90
12289;DHT22;6207;49.308;7.336;2023-03-31T17:48:28;10.30;99.90
12289;DHT22;6207;49.308;7.336;2023-03-31T17:50:54;10.30;99.90
12289;DHT22;6207;49.308;7.336;2023-03-31T17:53:21;10.00;99.90
12289;DHT22;6207;49.308;7.336;2023-03-31T17:55:48;9.80;99.90
12289;DHT22;6207;49.308;7.336;2023-03-31T17:58:14;9.70;99.90
12289;DHT22;6207;49.308;7.336;2023-03-31T18:00:41;9.70;99.90
12289;DHT22;6207;49.308;7.336;2023-03-31T18:03:08;9.60;99.90
12289;DHT22;6207;49.308;7.336;2023-03-31T18:05:35;9.90;99.90
12289;DHT22;6207;49.308;7.336;2023-03-31T18:08:02;9.60;99.90
12289;DHT22;6207;49.308;7.336;2023-03-31T18:10:30;9.60;99.90
12289;DHT22;6207;49.308;7.336;2023-03-31T18:12:57;9.60;99.90
12289;DHT22;6207;49.308;7.336;2023-03-31T18:15:25;9.50;99.90
12289;DHT22;6207;49.308;7.336;2023-03-31T18:17:51;9.20;99.90
12289;DHT22;6207;49.308;7.336;2023-03-31T18:20:19;9.00;99.90
12289;DHT22;6207;49.308;7.336;2023-03-31T18:22:45;8.70;99.90
12289;DHT22;6207;49.308;7.336;2023-03-31T18:25:12;8.60;99.90
12289;DHT22;6207;49.308;7.336;2023-03-31T18:27:39;8.50;99.90
12289;DHT22;6207;49.308;7.336;2023-03-31T18:30:06;8.60;99.90
12289;DHT22;6207;49.308;7.336;2023-03-31T18:32:33;8.50;99.90
12289;DHT22;6207;49.308;7.336;2023-03-31T18:35:00;8.30;99.90
12289;DHT22;6207;49.308;7.336;2023-03-31T18:37:27;8.30;99.90
12289;DHT22;6207;49.308;7.336;2023-03-31T18:39:54;8.40;99.90
12289;DHT22;6207;49.308;7.336;2023-03-31T18:42:21;8.40;99.90
12289;DHT22;6207;49.308;7.336;2023-03-31T18:44:51;8.80;99.90
12289;DHT22;6207;49.308;7.336;2023-03-31T18:47:19;8.80;99.90
12289;DHT22;6207;49.308;7.336;2023-03-31T18:49:46;8.80;99.90
12289;DHT22;6207;49.308;7.336;2023-03-31T18:52:14;8.80;99.90